| Date | Time | Temp. (oF) | Dew Point (oF) | Rel. Hum. (%) | Press. (in.) | Wind Dir. | Wind Speed (mph) | Hourly Rainfall (in.) |
|
|---|---|---|---|---|---|---|---|---|---|
| 1 | 11/17 | 00:00 | 42 | 34 | 75 | 30.24 | SSE | 0 | 0.00 |
| 2 | 11/16 | 23:00 | 42 | 35 | 78 | 30.22 | NE | 0 | 0.00 |
| 3 | 11/16 | 22:00 | 43 | 34 | 73 | 30.21 | WSW | 0 | 0.00 |
| 4 | 11/16 | 21:00 | 45 | 35 | 68 | 30.20 | S | 0 | 0.00 |
| 5 | 11/16 | 20:00 | 47 | 34 | 62 | 30.18 | S | 0 | 0.00 |
| 6 | 11/16 | 19:00 | 51 | 34 | 53 | 30.17 | SW | 0 | 0.00 |
| 7 | 11/16 | 18:00 | 56 | 34 | 44 | 30.16 | SW | 0 | 0.00 |
| 8 | 11/16 | 17:00 | 61 | 34 | 37 | 30.14 | SSW | 0 | 0.00 |
| 9 | 11/16 | 16:00 | 65 | 33 | 31 | 30.13 | WSW | 2 | 0.00 |
| 10 | 11/16 | 15:00 | 67 | 34 | 30 | 30.12 | WSW | 6 | 0.00 |
| 11 | 11/16 | 14:00 | 68 | 35 | 31 | 30.13 | WSW | 9 | 0.00 |
| 12 | 11/16 | 13:00 | 66 | 35 | 33 | 30.16 | W | 8 | 0.00 |
| 13 | 11/16 | 12:00 | 64 | 34 | 34 | 30.18 | W | 4 | 0.00 |
| 14 | 11/16 | 11:00 | 63 | 37 | 39 | 30.21 | W | 6 | 0.00 |
| 15 | 11/16 | 10:00 | 60 | 38 | 45 | 30.23 | WSW | 3 | 0.00 |
| 16 | 11/16 | 09:00 | 52 | 36 | 56 | 30.23 | S | 0 | 0.00 |
| 17 | 11/16 | 08:00 | 40 | 34 | 81 | 30.23 | E | 0 | 0.00 |
| 18 | 11/16 | 07:00 | 35 | 29 | 79 | 30.21 | SSE | 0 | 0.00 |
| 19 | 11/16 | 06:00 | 36 | 28 | 75 | 30.21 | SW | 0 | 0.00 |
| 20 | 11/16 | 05:00 | 38 | 30 | 73 | 30.21 | ENE | 0 | 0.00 |
| 21 | 11/16 | 04:00 | 40 | 29 | 66 | 30.19 | ESE | 0 | 0.00 |
| 22 | 11/16 | 03:00 | 43 | 31 | 63 | 30.18 | ESE | 0 | 0.00 |
| 23 | 11/16 | 02:00 | 44 | 30 | 58 | 30.18 | SSE | 0 | 0.00 |
| 24 | 11/16 | 01:00 | 47 | 31 | 54 | 30.17 | WSW | 1 | 0.00 |